sensor_id;sensor_type;location;lat;lon;timestamp;P1;durP1;ratioP1;P2;durP2;ratioP2
72408;SDS011;60402;48.082;11.628;2023-07-22T00:00:40;5.28;;;1.85;;
72408;SDS011;60402;48.082;11.628;2023-07-22T00:03:27;3.13;;;1.63;;
72408;SDS011;60402;48.082;11.628;2023-07-22T00:06:12;5.28;;;2.15;;
72408;SDS011;60402;48.082;11.628;2023-07-22T00:08:58;4.03;;;1.88;;
72408;SDS011;60402;48.082;11.628;2023-07-22T00:11:44;6.60;;;1.90;;
72408;SDS011;60402;48.082;11.628;2023-07-22T00:14:29;4.00;;;1.80;;
72408;SDS011;60402;48.082;11.628;2023-07-22T00:17:15;4.80;;;1.95;;
72408;SDS011;60402;48.082;11.628;2023-07-22T00:20:01;4.55;;;1.77;;
72408;SDS011;60402;48.082;11.628;2023-07-22T00:22:49;4.85;;;1.98;;
72408;SDS011;60402;48.082;11.628;2023-07-22T00:25:35;4.28;;;1.77;;
72408;SDS011;60402;48.082;11.628;2023-07-22T00:28:21;7.93;;;1.88;;
72408;SDS011;60402;48.082;11.628;2023-07-22T00:31:07;7.55;;;2.22;;
72408;SDS011;60402;48.082;11.628;2023-07-22T00:33:53;6.78;;;2.47;;
72408;SDS011;60402;48.082;11.628;2023-07-22T00:36:39;5.00;;;2.10;;
72408;SDS011;60402;48.082;11.628;2023-07-22T00:39:25;5.15;;;2.25;;
72408;SDS011;60402;48.082;11.628;2023-07-22T00:42:10;4.63;;;2.00;;
72408;SDS011;60402;48.082;11.628;2023-07-22T00:44:56;4.22;;;1.90;;
72408;SDS011;60402;48.082;11.628;2023-07-22T00:47:41;4.82;;;1.77;;
72408;SDS011;60402;48.082;11.628;2023-07-22T00:50:27;5.75;;;2.10;;
72408;SDS011;60402;48.082;11.628;2023-07-22T00:53:13;5.43;;;2.05;;
72408;SDS011;60402;48.082;11.628;2023-07-22T00:55:59;6.28;;;2.30;;
72408;SDS011;60402;48.082;11.628;2023-07-22T00:58:44;6.60;;;2.58;;
72408;SDS011;60402;48.082;11.628;2023-07-22T01:01:30;6.13;;;2.22;;
72408;SDS011;60402;48.082;11.628;2023-07-22T01:04:16;5.95;;;2.50;;
72408;SDS011;60402;48.082;11.628;2023-07-22T01:07:05;5.50;;;2.10;;
72408;SDS011;60402;48.082;11.628;2023-07-22T01:09:55;6.07;;;2.17;;
72408;SDS011;60402;48.082;11.628;2023-07-22T01:12:43;5.80;;;2.30;;
72408;SDS011;60402;48.082;11.628;2023-07-22T01:15:28;6.18;;;3.00;;
72408;SDS011;60402;48.082;11.628;2023-07-22T01:18:14;6.97;;;2.67;;
72408;SDS011;60402;48.082;11.628;2023-07-22T01:21:00;4.93;;;2.42;;
72408;SDS011;60402;48.082;11.628;2023-07-22T01:23:47;4.43;;;2.25;;
72408;SDS011;60402;48.082;11.628;2023-07-22T01:26:33;5.03;;;2.55;;
72408;SDS011;60402;48.082;11.628;2023-07-22T01:29:19;8.93;;;2.40;;
72408;SDS011;60402;48.082;11.628;2023-07-22T01:32:04;5.45;;;2.50;;
72408;SDS011;60402;48.082;11.628;2023-07-22T01:34:50;5.32;;;2.20;;
72408;SDS011;60402;48.082;11.628;2023-07-22T01:37:36;5.32;;;2.30;;
72408;SDS011;60402;48.082;11.628;2023-07-22T01:40:24;5.55;;;2.30;;
72408;SDS011;60402;48.082;11.628;2023-07-22T01:45:55;6.63;;;2.38;;
72408;SDS011;60402;48.082;11.628;2023-07-22T01:48:41;4.75;;;2.10;;
72408;SDS011;60402;48.082;11.628;2023-07-22T01:51:27;5.95;;;2.75;;
72408;SDS011;60402;48.082;11.628;2023-07-22T01:54:13;8.82;;;2.65;;
72408;SDS011;60402;48.082;11.628;2023-07-22T01:56:58;4.78;;;2.28;;
72408;SDS011;60402;48.082;11.628;2023-07-22T01:59:44;7.18;;;2.47;;
72408;SDS011;60402;48.082;11.628;2023-07-22T02:02:30;4.35;;;2.00;;
72408;SDS011;60402;48.082;11.628;2023-07-22T02:05:16;5.50;;;2.20;;
72408;SDS011;60402;48.082;11.628;2023-07-22T02:08:01;5.88;;;2.38;;
72408;SDS011;60402;48.082;11.628;2023-07-22T02:10:47;8.38;;;2.72;;
72408;SDS011;60402;48.082;11.628;2023-07-22T02:13:33;4.95;;;2.30;;
72408;SDS011;60402;48.082;11.628;2023-07-22T02:16:20;5.70;;;2.00;;
72408;SDS011;60402;48.082;11.628;2023-07-22T02:19:05;5.50;;;2.33;;
72408;SDS011;60402;48.082;11.628;2023-07-22T02:21:51;5.38;;;2.30;;
72408;SDS011;60402;48.082;11.628;2023-07-22T02:24:37;5.28;;;2.47;;
72408;SDS011;60402;48.082;11.628;2023-07-22T02:27:23;5.22;;;2.13;;
72408;SDS011;60402;48.082;11.628;2023-07-22T02:30:09;7.95;;;2.40;;
72408;SDS011;60402;48.082;11.628;2023-07-22T02:32:55;5.43;;;2.40;;
72408;SDS011;60402;48.082;11.628;2023-07-22T02:35:41;4.57;;;2.05;;
72408;SDS011;60402;48.082;11.628;2023-07-22T02:38:27;5.57;;;2.10;;
72408;SDS011;60402;48.082;11.628;2023-07-22T02:41:13;5.03;;;2.42;;
72408;SDS011;60402;48.082;11.628;2023-07-22T02:43:58;5.07;;;2.40;;
72408;SDS011;60402;48.082;11.628;2023-07-22T02:46:44;5.90;;;2.47;;
72408;SDS011;60402;48.082;11.628;2023-07-22T02:49:30;6.15;;;2.85;;
72408;SDS011;60402;48.082;11.628;2023-07-22T02:52:15;5.40;;;2.58;;
72408;SDS011;60402;48.082;11.628;2023-07-22T02:55:05;5.28;;;2.42;;
72408;SDS011;60402;48.082;11.628;2023-07-22T02:57:51;7.82;;;2.65;;
72408;SDS011;60402;48.082;11.628;2023-07-22T03:00:37;4.50;;;2.22;;
72408;SDS011;60402;48.082;11.628;2023-07-22T03:03:22;4.55;;;2.00;;
72408;SDS011;60402;48.082;11.628;2023-07-22T03:06:08;5.75;;;2.33;;
72408;SDS011;60402;48.082;11.628;2023-07-22T03:08:54;6.22;;;2.10;;
72408;SDS011;60402;48.082;11.628;2023-07-22T03:11:40;6.38;;;2.35;;
72408;SDS011;60402;48.082;11.628;2023-07-22T03:14:26;5.10;;;2.40;;
72408;SDS011;60402;48.082;11.628;2023-07-22T03:17:11;5.35;;;2.15;;
72408;SDS011;60402;48.082;11.628;2023-07-22T03:20:02;6.68;;;2.40;;
72408;SDS011;60402;48.082;11.628;2023-07-22T03:22:55;4.70;;;2.20;;
72408;SDS011;60402;48.082;11.628;2023-07-22T03:25:41;4.82;;;2.22;;
72408;SDS011;60402;48.082;11.628;2023-07-22T03:28:27;4.85;;;2.17;;
72408;SDS011;60402;48.082;11.628;2023-07-22T03:31:12;5.18;;;2.45;;
72408;SDS011;60402;48.082;11.628;2023-07-22T03:33:58;5.15;;;2.00;;
72408;SDS011;60402;48.082;11.628;2023-07-22T03:36:44;7.53;;;2.08;;
72408;SDS011;60402;48.082;11.628;2023-07-22T03:39:29;5.43;;;2.03;;
72408;SDS011;60402;48.082;11.628;2023-07-22T03:42:15;5.43;;;2.10;;
72408;SDS011;60402;48.082;11.628;2023-07-22T03:45:00;6.30;;;2.30;;
72408;SDS011;60402;48.082;11.628;2023-07-22T03:47:49;5.20;;;2.35;;
72408;SDS011;60402;48.082;11.628;2023-07-22T03:50:36;8.35;;;2.35;;
72408;SDS011;60402;48.082;11.628;2023-07-22T03:53:21;5.93;;;2.53;;
72408;SDS011;60402;48.082;11.628;2023-07-22T03:56:07;5.05;;;2.20;;
72408;SDS011;60402;48.082;11.628;2023-07-22T03:58:53;4.53;;;2.17;;
72408;SDS011;60402;48.082;11.628;2023-07-22T04:01:38;5.03;;;2.30;;
72408;SDS011;60402;48.082;11.628;2023-07-22T04:04:24;7.13;;;3.03;;
72408;SDS011;60402;48.082;11.628;2023-07-22T04:07:10;5.70;;;2.40;;
72408;SDS011;60402;48.082;11.628;2023-07-22T04:09:56;5.80;;;2.38;;
72408;SDS011;60402;48.082;11.628;2023-07-22T04:12:41;6.00;;;2.20;;
72408;SDS011;60402;48.082;11.628;2023-07-22T04:15:27;6.97;;;2.47;;
72408;SDS011;60402;48.082;11.628;2023-07-22T04:18:14;6.85;;;2.25;;
72408;SDS011;60402;48.082;11.628;2023-07-22T04:23:46;5.13;;;2.40;;
72408;SDS011;60402;48.082;11.628;2023-07-22T04:26:32;4.78;;;2.33;;
72408;SDS011;60402;48.082;11.628;2023-07-22T04:29:18;4.93;;;2.20;;
72408;SDS011;60402;48.082;11.628;2023-07-22T04:32:03;6.60;;;2.63;;
72408;SDS011;60402;48.082;11.628;2023-07-22T04:34:50;8.90;;;2.60;;
72408;SDS011;60402;48.082;11.628;2023-07-22T04:37:35;6.05;;;2.33;;
72408;SDS011;60402;48.082;11.628;2023-07-22T04:40:21;5.80;;;2.35;;
72408;SDS011;60402;48.082;11.628;2023-07-22T04:43:07;6.65;;;2.63;;
72408;SDS011;60402;48.082;11.628;2023-07-22T04:45:52;5.15;;;2.70;;
72408;SDS011;60402;48.082;11.628;2023-07-22T04:48:38;4.45;;;2.22;;
72408;SDS011;60402;48.082;11.628;2023-07-22T04:51:23;7.32;;;2.80;;
72408;SDS011;60402;48.082;11.628;2023-07-22T04:54:09;5.85;;;2.50;;
72408;SDS011;60402;48.082;11.628;2023-07-22T04:56:55;5.13;;;2.40;;
72408;SDS011;60402;48.082;11.628;2023-07-22T04:59:40;5.97;;;2.90;;
72408;SDS011;60402;48.082;11.628;2023-07-22T05:02:26;5.63;;;2.50;;
72408;SDS011;60402;48.082;11.628;2023-07-22T05:05:12;6.45;;;2.83;;
72408;SDS011;60402;48.082;11.628;2023-07-22T05:07:58;9.32;;;2.40;;
72408;SDS011;60402;48.082;11.628;2023-07-22T05:10:44;6.10;;;2.60;;
72408;SDS011;60402;48.082;11.628;2023-07-22T05:13:30;6.70;;;2.70;;
72408;SDS011;60402;48.082;11.628;2023-07-22T05:16:15;5.15;;;2.50;;
72408;SDS011;60402;48.082;11.628;2023-07-22T05:19:01;6.80;;;2.45;;
72408;SDS011;60402;48.082;11.628;2023-07-22T05:21:47;7.97;;;3.00;;
72408;SDS011;60402;48.082;11.628;2023-07-22T05:24:33;6.65;;;2.58;;
72408;SDS011;60402;48.082;11.628;2023-07-22T05:27:18;6.00;;;2.35;;
72408;SDS011;60402;48.082;11.628;2023-07-22T05:30:04;5.95;;;2.35;;
72408;SDS011;60402;48.082;11.628;2023-07-22T05:32:54;5.38;;;2.42;;
72408;SDS011;60402;48.082;11.628;2023-07-22T05:35:39;7.55;;;2.55;;
72408;SDS011;60402;48.082;11.628;2023-07-22T05:38:25;6.35;;;2.42;;
72408;SDS011;60402;48.082;11.628;2023-07-22T05:41:11;5.25;;;2.30;;
72408;SDS011;60402;48.082;11.628;2023-07-22T05:43:56;5.25;;;2.28;;
72408;SDS011;60402;48.082;11.628;2023-07-22T05:46:42;5.57;;;2.38;;
72408;SDS011;60402;48.082;11.628;2023-07-22T05:49:28;5.93;;;2.42;;
72408;SDS011;60402;48.082;11.628;2023-07-22T05:52:13;5.70;;;2.47;;
72408;SDS011;60402;48.082;11.628;2023-07-22T05:54:59;6.30;;;2.20;;
72408;SDS011;60402;48.082;11.628;2023-07-22T05:57:44;6.13;;;2.33;;
72408;SDS011;60402;48.082;11.628;2023-07-22T06:00:31;5.82;;;2.17;;
72408;SDS011;60402;48.082;11.628;2023-07-22T06:03:19;4.57;;;2.35;;
72408;SDS011;60402;48.082;11.628;2023-07-22T06:06:06;5.10;;;2.15;;
72408;SDS011;60402;48.082;11.628;2023-07-22T06:08:52;4.55;;;2.25;;
72408;SDS011;60402;48.082;11.628;2023-07-22T06:11:37;5.57;;;2.20;;
72408;SDS011;60402;48.082;11.628;2023-07-22T06:14:23;4.90;;;1.90;;
72408;SDS011;60402;48.082;11.628;2023-07-22T06:17:08;4.55;;;2.10;;
72408;SDS011;60402;48.082;11.628;2023-07-22T06:19:54;3.78;;;1.90;;
72408;SDS011;60402;48.082;11.628;2023-07-22T06:22:40;4.18;;;1.70;;
72408;SDS011;60402;48.082;11.628;2023-07-22T06:25:25;4.38;;;1.83;;
72408;SDS011;60402;48.082;11.628;2023-07-22T06:28:11;4.75;;;2.03;;
72408;SDS011;60402;48.082;11.628;2023-07-22T06:30:57;5.53;;;1.83;;
72408;SDS011;60402;48.082;11.628;2023-07-22T06:33:42;5.38;;;1.73;;
72408;SDS011;60402;48.082;11.628;2023-07-22T06:36:28;3.38;;;1.40;;
72408;SDS011;60402;48.082;11.628;2023-07-22T06:39:14;4.78;;;1.80;;
72408;SDS011;60402;48.082;11.628;2023-07-22T06:41:59;4.15;;;1.50;;
72408;SDS011;60402;48.082;11.628;2023-07-22T06:44:45;4.15;;;1.42;;
72408;SDS011;60402;48.082;11.628;2023-07-22T06:47:31;5.75;;;1.52;;
72408;SDS011;60402;48.082;11.628;2023-07-22T06:50:16;4.53;;;1.40;;
72408;SDS011;60402;48.082;11.628;2023-07-22T06:53:02;4.53;;;1.45;;
72408;SDS011;60402;48.082;11.628;2023-07-22T06:55:49;3.35;;;1.70;;
72408;SDS011;60402;48.082;11.628;2023-07-22T06:58:36;3.78;;;1.40;;
72408;SDS011;60402;48.082;11.628;2023-07-22T07:01:22;3.22;;;1.30;;
72408;SDS011;60402;48.082;11.628;2023-07-22T07:04:08;3.13;;;1.23;;
72408;SDS011;60402;48.082;11.628;2023-07-22T07:06:53;3.40;;;1.48;;
72408;SDS011;60402;48.082;11.628;2023-07-22T07:09:39;3.72;;;1.30;;
72408;SDS011;60402;48.082;11.628;2023-07-22T07:12:25;2.72;;;1.20;;
72408;SDS011;60402;48.082;11.628;2023-07-22T07:15:11;2.42;;;1.00;;
72408;SDS011;60402;48.082;11.628;2023-07-22T07:17:57;2.45;;;1.20;;
72408;SDS011;60402;48.082;11.628;2023-07-22T07:20:42;2.83;;;1.20;;
72408;SDS011;60402;48.082;11.628;2023-07-22T07:23:28;3.40;;;1.00;;
72408;SDS011;60402;48.082;11.628;2023-07-22T07:26:14;3.20;;;1.15;;
72408;SDS011;60402;48.082;11.628;2023-07-22T07:28:59;3.65;;;1.58;;
72408;SDS011;60402;48.082;11.628;2023-07-22T07:31:45;2.95;;;1.23;;
72408;SDS011;60402;48.082;11.628;2023-07-22T07:34:31;2.50;;;1.00;;
72408;SDS011;60402;48.082;11.628;2023-07-22T07:37:16;4.60;;;1.42;;
72408;SDS011;60402;48.082;11.628;2023-07-22T07:40:02;4.28;;;1.25;;
72408;SDS011;60402;48.082;11.628;2023-07-22T07:42:48;3.03;;;1.02;;
72408;SDS011;60402;48.082;11.628;2023-07-22T07:45:39;2.25;;;1.02;;
72408;SDS011;60402;48.082;11.628;2023-07-22T07:48:24;3.75;;;1.27;;
72408;SDS011;60402;48.082;11.628;2023-07-22T07:51:11;2.78;;;1.13;;
72408;SDS011;60402;48.082;11.628;2023-07-22T07:53:58;3.72;;;1.20;;
72408;SDS011;60402;48.082;11.628;2023-07-22T07:56:44;4.00;;;1.20;;
72408;SDS011;60402;48.082;11.628;2023-07-22T07:59:30;2.72;;;1.05;;
72408;SDS011;60402;48.082;11.628;2023-07-22T08:02:16;2.47;;;0.98;;
72408;SDS011;60402;48.082;11.628;2023-07-22T08:05:01;2.92;;;1.20;;
72408;SDS011;60402;48.082;11.628;2023-07-22T08:07:47;2.08;;;1.00;;
72408;SDS011;60402;48.082;11.628;2023-07-22T08:10:33;4.57;;;1.10;;
72408;SDS011;60402;48.082;11.628;2023-07-22T08:13:19;3.65;;;1.02;;
72408;SDS011;60402;48.082;11.628;2023-07-22T08:16:05;2.42;;;1.10;;
72408;SDS011;60402;48.082;11.628;2023-07-22T08:18:55;2.92;;;1.10;;
72408;SDS011;60402;48.082;11.628;2023-07-22T08:21:41;3.90;;;1.20;;
72408;SDS011;60402;48.082;11.628;2023-07-22T08:24:26;4.22;;;1.00;;
72408;SDS011;60402;48.082;11.628;2023-07-22T08:27:12;2.30;;;1.00;;
72408;SDS011;60402;48.082;11.628;2023-07-22T08:29:58;2.50;;;1.00;;
72408;SDS011;60402;48.082;11.628;2023-07-22T08:32:43;3.92;;;0.98;;
72408;SDS011;60402;48.082;11.628;2023-07-22T08:35:29;2.63;;;1.00;;
72408;SDS011;60402;48.082;11.628;2023-07-22T08:38:15;3.97;;;1.25;;
72408;SDS011;60402;48.082;11.628;2023-07-22T08:41:00;1.92;;;0.90;;
72408;SDS011;60402;48.082;11.628;2023-07-22T08:43:46;2.80;;;0.95;;
72408;SDS011;60402;48.082;11.628;2023-07-22T08:46:33;3.45;;;1.45;;
72408;SDS011;60402;48.082;11.628;2023-07-22T08:49:19;2.22;;;1.08;;
72408;SDS011;60402;48.082;11.628;2023-07-22T08:52:05;3.20;;;1.17;;
72408;SDS011;60402;48.082;11.628;2023-07-22T08:54:51;3.03;;;1.17;;
72408;SDS011;60402;48.082;11.628;2023-07-22T08:57:38;2.45;;;0.82;;
72408;SDS011;60402;48.082;11.628;2023-07-22T09:00:24;1.70;;;0.85;;
72408;SDS011;60402;48.082;11.628;2023-07-22T09:03:11;3.25;;;0.90;;
72408;SDS011;60402;48.082;11.628;2023-07-22T09:05:56;2.15;;;1.00;;
72408;SDS011;60402;48.082;11.628;2023-07-22T09:08:42;3.40;;;0.90;;
72408;SDS011;60402;48.082;11.628;2023-07-22T09:11:28;1.55;;;0.90;;
72408;SDS011;60402;48.082;11.628;2023-07-22T09:14:14;2.05;;;0.98;;
72408;SDS011;60402;48.082;11.628;2023-07-22T09:17:01;1.88;;;0.80;;
72408;SDS011;60402;48.082;11.628;2023-07-22T09:19:51;2.58;;;0.90;;
72408;SDS011;60402;48.082;11.628;2023-07-22T09:22:37;3.03;;;1.17;;
72408;SDS011;60402;48.082;11.628;2023-07-22T09:25:24;3.63;;;1.20;;
72408;SDS011;60402;48.082;11.628;2023-07-22T09:28:11;3.65;;;1.10;;
72408;SDS011;60402;48.082;11.628;2023-07-22T09:31:01;2.60;;;0.90;;
72408;SDS011;60402;48.082;11.628;2023-07-22T09:33:48;2.88;;;1.20;;
72408;SDS011;60402;48.082;11.628;2023-07-22T09:36:40;4.30;;;1.15;;
72408;SDS011;60402;48.082;11.628;2023-07-22T09:39:35;3.13;;;0.95;;
72408;SDS011;60402;48.082;11.628;2023-07-22T09:42:25;2.63;;;1.00;;
72408;SDS011;60402;48.082;11.628;2023-07-22T09:45:11;2.17;;;0.95;;
72408;SDS011;60402;48.082;11.628;2023-07-22T09:47:57;2.67;;;0.95;;
72408;SDS011;60402;48.082;11.628;2023-07-22T09:50:43;2.15;;;1.10;;
72408;SDS011;60402;48.082;11.628;2023-07-22T09:53:29;2.50;;;1.00;;
72408;SDS011;60402;48.082;11.628;2023-07-22T09:56:14;2.72;;;0.95;;
72408;SDS011;60402;48.082;11.628;2023-07-22T09:59:02;1.77;;;0.88;;
72408;SDS011;60402;48.082;11.628;2023-07-22T10:01:51;2.40;;;0.77;;
72408;SDS011;60402;48.082;11.628;2023-07-22T10:04:39;2.47;;;0.90;;
72408;SDS011;60402;48.082;11.628;2023-07-22T10:07:26;2.88;;;0.80;;
72408;SDS011;60402;48.082;11.628;2023-07-22T10:13:30;2.15;;;0.77;;
72408;SDS011;60402;48.082;11.628;2023-07-22T10:16:20;2.85;;;0.90;;
72408;SDS011;60402;48.082;11.628;2023-07-22T10:19:07;3.38;;;0.90;;
72408;SDS011;60402;48.082;11.628;2023-07-22T10:21:56;2.30;;;0.80;;
72408;SDS011;60402;48.082;11.628;2023-07-22T10:24:42;2.50;;;0.90;;
72408;SDS011;60402;48.082;11.628;2023-07-22T10:30:16;3.10;;;1.30;;
72408;SDS011;60402;48.082;11.628;2023-07-22T10:33:03;3.92;;;1.02;;
72408;SDS011;60402;48.082;11.628;2023-07-22T10:39:24;1.83;;;0.90;;
72408;SDS011;60402;48.082;11.628;2023-07-22T10:42:19;2.90;;;1.10;;
72408;SDS011;60402;48.082;11.628;2023-07-22T10:45:23;2.95;;;1.10;;
72408;SDS011;60402;48.082;11.628;2023-07-22T10:48:13;1.30;;;0.70;;
72408;SDS011;60402;48.082;11.628;2023-07-22T10:51:04;2.05;;;0.90;;
72408;SDS011;60402;48.082;11.628;2023-07-22T10:53:51;3.50;;;1.02;;
72408;SDS011;60402;48.082;11.628;2023-07-22T10:56:37;2.60;;;1.00;;
72408;SDS011;60402;48.082;11.628;2023-07-22T10:59:26;1.85;;;0.90;;
72408;SDS011;60402;48.082;11.628;2023-07-22T11:02:22;2.13;;;0.98;;
72408;SDS011;60402;48.082;11.628;2023-07-22T11:05:11;2.38;;;1.00;;
72408;SDS011;60402;48.082;11.628;2023-07-22T11:08:03;1.55;;;0.80;;
72408;SDS011;60402;48.082;11.628;2023-07-22T11:10:52;1.73;;;0.90;;
72408;SDS011;60402;48.082;11.628;2023-07-22T11:13:41;3.03;;;1.10;;
72408;SDS011;60402;48.082;11.628;2023-07-22T11:16:28;2.72;;;1.02;;
72408;SDS011;60402;48.082;11.628;2023-07-22T11:19:14;2.55;;;1.05;;
72408;SDS011;60402;48.082;11.628;2023-07-22T11:22:01;5.90;;;1.20;;
72408;SDS011;60402;48.082;11.628;2023-07-22T11:24:47;3.25;;;1.00;;
72408;SDS011;60402;48.082;11.628;2023-07-22T11:27:32;3.35;;;1.10;;
72408;SDS011;60402;48.082;11.628;2023-07-22T11:30:18;9.85;;;1.05;;
72408;SDS011;60402;48.082;11.628;2023-07-22T11:33:04;3.40;;;0.90;;
72408;SDS011;60402;48.082;11.628;2023-07-22T11:35:49;2.58;;;1.10;;
72408;SDS011;60402;48.082;11.628;2023-07-22T11:38:35;2.63;;;0.93;;
72408;SDS011;60402;48.082;11.628;2023-07-22T11:41:24;2.65;;;1.30;;
72408;SDS011;60402;48.082;11.628;2023-07-22T11:44:10;3.30;;;1.00;;
72408;SDS011;60402;48.082;11.628;2023-07-22T11:47:01;3.85;;;1.17;;
72408;SDS011;60402;48.082;11.628;2023-07-22T11:49:48;2.35;;;1.00;;
72408;SDS011;60402;48.082;11.628;2023-07-22T11:52:34;2.30;;;1.00;;
72408;SDS011;60402;48.082;11.628;2023-07-22T11:55:22;2.65;;;1.05;;
72408;SDS011;60402;48.082;11.628;2023-07-22T11:58:08;2.97;;;1.20;;
72408;SDS011;60402;48.082;11.628;2023-07-22T12:01:01;4.15;;;1.17;;
72408;SDS011;60402;48.082;11.628;2023-07-22T12:03:55;2.65;;;1.15;;
72408;SDS011;60402;48.082;11.628;2023-07-22T12:06:41;2.63;;;1.00;;
72408;SDS011;60402;48.082;11.628;2023-07-22T12:09:27;3.30;;;1.30;;
72408;SDS011;60402;48.082;11.628;2023-07-22T12:12:13;3.00;;;1.20;;
72408;SDS011;60402;48.082;11.628;2023-07-22T12:15:08;2.88;;;1.27;;
72408;SDS011;60402;48.082;11.628;2023-07-22T12:18:01;2.67;;;1.00;;
72408;SDS011;60402;48.082;11.628;2023-07-22T12:20:47;2.25;;;1.10;;
72408;SDS011;60402;48.082;11.628;2023-07-22T12:23:33;2.75;;;1.40;;
72408;SDS011;60402;48.082;11.628;2023-07-22T12:26:19;2.55;;;1.10;;
72408;SDS011;60402;48.082;11.628;2023-07-22T12:29:04;4.10;;;1.10;;
72408;SDS011;60402;48.082;11.628;2023-07-22T12:31:50;3.20;;;1.20;;
72408;SDS011;60402;48.082;11.628;2023-07-22T12:34:36;2.72;;;0.98;;
72408;SDS011;60402;48.082;11.628;2023-07-22T12:37:21;4.60;;;1.30;;
72408;SDS011;60402;48.082;11.628;2023-07-22T12:40:07;2.80;;;1.13;;
72408;SDS011;60402;48.082;11.628;2023-07-22T12:42:53;3.97;;;1.30;;
72408;SDS011;60402;48.082;11.628;2023-07-22T12:45:39;2.28;;;1.13;;
72408;SDS011;60402;48.082;11.628;2023-07-22T12:48:24;2.17;;;1.00;;
72408;SDS011;60402;48.082;11.628;2023-07-22T12:51:10;4.13;;;1.20;;
72408;SDS011;60402;48.082;11.628;2023-07-22T12:53:56;2.72;;;1.10;;
72408;SDS011;60402;48.082;11.628;2023-07-22T12:56:42;2.60;;;1.13;;
72408;SDS011;60402;48.082;11.628;2023-07-22T12:59:28;2.40;;;1.10;;
72408;SDS011;60402;48.082;11.628;2023-07-22T13:02:15;2.60;;;0.93;;
72408;SDS011;60402;48.082;11.628;2023-07-22T13:07:47;3.40;;;1.23;;
72408;SDS011;60402;48.082;11.628;2023-07-22T13:10:33;4.07;;;1.40;;
72408;SDS011;60402;48.082;11.628;2023-07-22T13:16:06;2.80;;;1.02;;
72408;SDS011;60402;48.082;11.628;2023-07-22T13:18:51;2.75;;;0.93;;
72408;SDS011;60402;48.082;11.628;2023-07-22T13:21:37;3.05;;;1.10;;
72408;SDS011;60402;48.082;11.628;2023-07-22T13:24:22;3.45;;;1.20;;
72408;SDS011;60402;48.082;11.628;2023-07-22T13:27:08;2.83;;;1.13;;
72408;SDS011;60402;48.082;11.628;2023-07-22T13:29:54;3.33;;;1.33;;
72408;SDS011;60402;48.082;11.628;2023-07-22T13:32:39;2.45;;;1.13;;
72408;SDS011;60402;48.082;11.628;2023-07-22T13:35:25;4.55;;;1.80;;
72408;SDS011;60402;48.082;11.628;2023-07-22T13:38:11;3.35;;;1.50;;
72408;SDS011;60402;48.082;11.628;2023-07-22T13:40:56;4.88;;;1.10;;
72408;SDS011;60402;48.082;11.628;2023-07-22T13:43:42;2.22;;;1.10;;
72408;SDS011;60402;48.082;11.628;2023-07-22T13:46:28;2.63;;;1.17;;
72408;SDS011;60402;48.082;11.628;2023-07-22T13:49:13;2.72;;;1.10;;
72408;SDS011;60402;48.082;11.628;2023-07-22T13:52:00;2.83;;;1.20;;
72408;SDS011;60402;48.082;11.628;2023-07-22T13:54:46;3.85;;;1.30;;
72408;SDS011;60402;48.082;11.628;2023-07-22T13:57:38;2.97;;;1.20;;
72408;SDS011;60402;48.082;11.628;2023-07-22T14:00:24;2.95;;;1.30;;
72408;SDS011;60402;48.082;11.628;2023-07-22T14:03:09;2.33;;;1.15;;
72408;SDS011;60402;48.082;11.628;2023-07-22T14:05:55;4.00;;;1.17;;
72408;SDS011;60402;48.082;11.628;2023-07-22T14:08:41;3.88;;;1.33;;
72408;SDS011;60402;48.082;11.628;2023-07-22T14:11:27;3.35;;;1.08;;
72408;SDS011;60402;48.082;11.628;2023-07-22T14:14:12;3.15;;;1.17;;
72408;SDS011;60402;48.082;11.628;2023-07-22T14:16:58;4.07;;;1.20;;
72408;SDS011;60402;48.082;11.628;2023-07-22T14:19:44;3.40;;;1.38;;
72408;SDS011;60402;48.082;11.628;2023-07-22T14:22:29;1.85;;;0.90;;
72408;SDS011;60402;48.082;11.628;2023-07-22T14:25:15;3.55;;;1.30;;
72408;SDS011;60402;48.082;11.628;2023-07-22T14:28:01;4.10;;;1.40;;
72408;SDS011;60402;48.082;11.628;2023-07-22T14:30:47;4.10;;;1.25;;
72408;SDS011;60402;48.082;11.628;2023-07-22T14:33:33;2.90;;;1.10;;
72408;SDS011;60402;48.082;11.628;2023-07-22T14:36:19;3.15;;;1.20;;
72408;SDS011;60402;48.082;11.628;2023-07-22T14:39:04;4.72;;;1.38;;
72408;SDS011;60402;48.082;11.628;2023-07-22T14:41:50;3.42;;;1.30;;
72408;SDS011;60402;48.082;11.628;2023-07-22T14:44:36;3.15;;;1.27;;
72408;SDS011;60402;48.082;11.628;2023-07-22T14:47:22;3.67;;;1.30;;
72408;SDS011;60402;48.082;11.628;2023-07-22T14:50:07;3.30;;;1.30;;
72408;SDS011;60402;48.082;11.628;2023-07-22T14:52:53;4.43;;;1.88;;
72408;SDS011;60402;48.082;11.628;2023-07-22T14:55:39;3.58;;;1.30;;
72408;SDS011;60402;48.082;11.628;2023-07-22T14:58:25;3.15;;;1.10;;
72408;SDS011;60402;48.082;11.628;2023-07-22T15:01:10;2.58;;;1.00;;
72408;SDS011;60402;48.082;11.628;2023-07-22T15:03:56;3.95;;;1.23;;
72408;SDS011;60402;48.082;11.628;2023-07-22T15:06:42;2.97;;;1.33;;
72408;SDS011;60402;48.082;11.628;2023-07-22T15:09:27;3.20;;;1.30;;
72408;SDS011;60402;48.082;11.628;2023-07-22T15:12:13;3.80;;;1.50;;
72408;SDS011;60402;48.082;11.628;2023-07-22T15:14:58;3.63;;;1.30;;
72408;SDS011;60402;48.082;11.628;2023-07-22T15:17:46;4.10;;;1.40;;
72408;SDS011;60402;48.082;11.628;2023-07-22T15:20:31;3.85;;;1.30;;
72408;SDS011;60402;48.082;11.628;2023-07-22T15:23:17;5.03;;;1.67;;
72408;SDS011;60402;48.082;11.628;2023-07-22T15:26:03;4.20;;;1.52;;
72408;SDS011;60402;48.082;11.628;2023-07-22T15:28:48;3.25;;;1.38;;
72408;SDS011;60402;48.082;11.628;2023-07-22T15:31:34;4.22;;;1.63;;
72408;SDS011;60402;48.082;11.628;2023-07-22T15:34:19;5.40;;;1.50;;
72408;SDS011;60402;48.082;11.628;2023-07-22T15:37:05;4.53;;;1.73;;
72408;SDS011;60402;48.082;11.628;2023-07-22T15:39:51;5.82;;;1.63;;
72408;SDS011;60402;48.082;11.628;2023-07-22T15:42:36;3.88;;;1.55;;
72408;SDS011;60402;48.082;11.628;2023-07-22T15:45:22;3.40;;;1.40;;
72408;SDS011;60402;48.082;11.628;2023-07-22T15:48:08;6.00;;;1.50;;
72408;SDS011;60402;48.082;11.628;2023-07-22T15:50:53;3.90;;;1.55;;
72408;SDS011;60402;48.082;11.628;2023-07-22T15:53:42;3.85;;;1.70;;
72408;SDS011;60402;48.082;11.628;2023-07-22T15:56:28;3.80;;;1.33;;
72408;SDS011;60402;48.082;11.628;2023-07-22T15:59:13;4.80;;;1.52;;
72408;SDS011;60402;48.082;11.628;2023-07-22T16:01:59;4.60;;;1.80;;
72408;SDS011;60402;48.082;11.628;2023-07-22T16:04:45;4.32;;;1.58;;
72408;SDS011;60402;48.082;11.628;2023-07-22T16:07:31;4.45;;;1.85;;
72408;SDS011;60402;48.082;11.628;2023-07-22T16:10:17;4.63;;;1.35;;
72408;SDS011;60402;48.082;11.628;2023-07-22T16:13:03;3.95;;;1.40;;
72408;SDS011;60402;48.082;11.628;2023-07-22T16:15:49;5.85;;;1.77;;
72408;SDS011;60402;48.082;11.628;2023-07-22T16:18:34;7.18;;;2.33;;
72408;SDS011;60402;48.082;11.628;2023-07-22T16:21:20;15.65;;;13.20;;
72408;SDS011;60402;48.082;11.628;2023-07-22T16:24:06;7.38;;;3.58;;
72408;SDS011;60402;48.082;11.628;2023-07-22T16:26:51;8.23;;;6.35;;
72408;SDS011;60402;48.082;11.628;2023-07-22T16:29:37;4.72;;;2.10;;
72408;SDS011;60402;48.082;11.628;2023-07-22T16:32:24;4.00;;;1.63;;
72408;SDS011;60402;48.082;11.628;2023-07-22T16:35:10;4.03;;;1.50;;
72408;SDS011;60402;48.082;11.628;2023-07-22T16:37:56;6.10;;;2.78;;
72408;SDS011;60402;48.082;11.628;2023-07-22T16:40:42;5.00;;;2.22;;
72408;SDS011;60402;48.082;11.628;2023-07-22T16:43:27;4.85;;;1.83;;
72408;SDS011;60402;48.082;11.628;2023-07-22T16:46:13;4.90;;;1.73;;